Time;durP1;ratioP1;P1;durP2;ratioP2;P2;SDS_P1;SDS_P2;PMS_P1;PMS_P2;Temp;Humidity;BMP_temperature;BMP_pressure;BME280_temperature;BME280_humidity;BME280_pressure;Samples;Min_cycle;Max_cycle;Signal;HPM_P1;HPM_P2
2023/01/04 00:02:00;;;;;;;5.77;3.10;;;6.90;99.90;;;;;;4955060;29;20186;-48
2023/01/04 00:04:26;;;;;;;5.30;3.30;;;7.00;99.90;;;;;;4955228;29;20675;-55
2023/01/04 00:06:51;;;;;;;3.97;2.97;;;7.00;99.90;;;;;;4955002;28;20194;-48
2023/01/04 00:09:17;;;;;;;3.43;3.10;;;7.00;99.90;;;;;;4955082;29;20190;-48
2023/01/04 00:11:42;;;;;;;5.60;2.93;;;7.00;99.90;;;;;;4955947;28;20564;-47
2023/01/04 00:14:10;;;;;;;5.67;2.90;;;7.10;99.90;;;;;;4955231;29;20174;-47
2023/01/04 00:16:36;;;;;;;5.80;2.70;;;7.10;99.90;;;;;;4938000;29;20190;-47
2023/01/04 00:19:02;;;;;;;5.33;2.73;;;7.10;99.90;;;;;;4955027;28;20455;-47
2023/01/04 00:21:29;;;;;;;3.70;2.67;;;7.10;99.90;;;;;;4955038;29;20257;-47
2023/01/04 00:23:58;;;;;;;12.67;3.10;;;7.10;99.90;;;;;;4954968;29;20517;-47
2023/01/04 00:26:29;;;;;;;4.00;2.37;;;7.10;99.90;;;;;;4954833;28;20433;-47
2023/01/04 00:28:57;;;;;;;7.20;2.70;;;7.10;99.90;;;;;;4954830;29;20548;-47
2023/01/04 00:31:24;;;;;;;6.23;2.20;;;7.10;99.90;;;;;;4954811;29;20818;-47
2023/01/04 00:33:54;;;;;;;9.30;2.90;;;7.10;99.90;;;;;;4937684;29;20441;-47
2023/01/04 00:36:20;;;;;;;9.80;2.67;;;7.10;99.90;;;;;;4954420;29;20480;-47
2023/01/04 00:38:46;;;;;;;8.53;3.00;;;7.20;99.90;;;;;;4954573;29;20413;-47
2023/01/04 00:41:12;;;;;;;6.53;2.43;;;7.20;99.90;;;;;;4954381;29;20418;-47
2023/01/04 00:43:38;;;;;;;6.47;2.97;;;7.20;99.90;;;;;;4954535;29;20194;-47
2023/01/04 00:46:06;;;;;;;6.50;3.17;;;7.30;99.90;;;;;;4954373;29;20425;-47
2023/01/04 00:48:32;;;;;;;5.93;2.83;;;7.30;99.90;;;;;;4954193;29;20213;-47
2023/01/04 00:50:59;;;;;;;6.73;2.10;;;7.30;99.60;;;;;;4954093;29;20424;-47
2023/01/04 00:53:24;;;;;;;8.93;2.80;;;7.40;83.40;;;;;;4954158;29;20192;-47
2023/01/04 00:55:50;;;;;;;4.83;2.20;;;7.40;67.90;;;;;;4944066;28;20441;-47
2023/01/04 00:58:16;;;;;;;4.50;2.40;;;7.40;64.00;;;;;;4953839;29;20565;-47
2023/01/04 01:00:41;;;;;;;4.30;2.23;;;7.40;66.90;;;;;;4954326;29;20192;-47
2023/01/04 01:03:07;;;;;;;6.43;2.10;;;7.30;80.80;;;;;;4936951;29;20879;-47
2023/01/04 01:05:34;;;;;;;3.30;2.40;;;7.40;59.20;;;;;;4953799;28;20232;-47
2023/01/04 01:08:23;;;;;;;5.13;2.33;;;7.40;41.60;;;;;;4953774;29;20473;-47
2023/01/04 01:10:47;;;;;;;3.53;2.30;;;7.50;30.00;;;;;;4954731;29;20492;-47
2023/01/04 01:13:12;;;;;;;9.43;2.50;;;7.50;25.40;;;;;;4954180;29;20409;-47
2023/01/04 01:15:38;;;;;;;5.73;2.30;;;7.60;17.70;;;;;;4953772;29;20185;-47
2023/01/04 01:18:04;;;;;;;6.27;2.47;;;7.50;16.20;;;;;;4936625;29;20190;-47
2023/01/04 01:20:30;;;;;;;6.57;2.60;;;7.50;26.50;;;;;;4953792;28;20431;-48
2023/01/04 01:22:55;;;;;;;4.73;2.37;;;7.50;7.10;;;;;;4953724;28;20703;-47
2023/01/04 01:25:21;;;;;;;7.60;2.70;;;7.70;1.00;;;;;;4953524;29;20189;-47
2023/01/04 01:27:46;;;;;;;6.50;2.60;;;7.70;1.00;;;;;;4953740;28;20252;-47
2023/01/04 01:30:12;;;;;;;8.43;2.50;;;7.70;1.00;;;;;;4953655;29;20181;-47
2023/01/04 01:32:37;;;;;;;7.53;2.33;;;7.70;1.00;;;;;;4953600;29;20177;-47
2023/01/04 01:35:03;;;;;;;8.30;2.57;;;7.70;1.00;;;;;;4953360;29;20186;-47
2023/01/04 01:37:29;;;;;;;8.83;3.17;;;7.80;1.00;;;;;;4953691;29;20225;-47
2023/01/04 01:39:54;;;;;;;6.13;2.70;;;7.70;1.00;;;;;;4953455;28;20181;-47
2023/01/04 01:42:22;;;;;;;4.60;2.03;;;7.80;1.00;;;;;;4953882;29;20185;-47
2023/01/04 01:45:01;;;;;;;5.60;2.13;;;7.80;1.00;;;;;;4953816;29;20174;-48
2023/01/04 01:47:40;;;;;;;11.20;2.00;;;7.80;1.00;;;;;;4953149;29;20457;-47
2023/01/04 01:50:19;;;;;;;9.57;2.50;;;7.90;1.00;;;;;;4953497;29;20761;-46
2023/01/04 01:52:46;;;;;;;6.17;3.30;;;7.90;1.00;;;;;;4953396;29;20508;-48
2023/01/04 01:55:12;;;;;;;8.50;3.63;;;7.90;1.00;;;;;;4953433;28;20409;-49
2023/01/04 01:57:38;;;;;;;9.50;2.60;;;7.90;1.00;;;;;;4953276;29;20510;-49
2023/01/04 02:00:09;;;;;;;6.97;2.30;;;7.80;1.00;;;;;;4953393;28;20767;-49
2023/01/04 02:02:35;;;;;;;4.73;2.47;;;7.90;1.00;;;;;;4952989;29;20409;-49
2023/01/04 02:05:02;;;;;;;4.60;1.80;;;8.00;1.00;;;;;;4953182;29;20408;-49
2023/01/04 02:07:28;;;;;;;6.07;2.20;;;8.00;1.00;;;;;;4954074;28;20459;-49
2023/01/04 02:09:55;;;;;;;3.10;2.33;;;7.90;1.00;;;;;;4957229;28;20444;-49
2023/01/04 02:12:20;;;;;;;6.10;1.93;;;7.90;1.00;;;;;;4958030;29;20420;-49
2023/01/04 02:14:49;;;;;;;6.57;1.97;;;8.00;1.00;;;;;;4957203;29;20402;-50
2023/01/04 02:17:39;;;;;;;2.80;1.83;;;8.00;1.00;;;;;;4956853;28;20186;-47
2023/01/04 02:20:31;;;;;;;5.37;1.80;;;8.00;1.00;;;;;;4957145;29;20476;-46
2023/01/04 02:23:21;;;;;;;2.67;1.70;;;8.00;1.00;;;;;;4948482;29;20480;-46
2023/01/04 02:26:01;;;;;;;5.90;1.87;;;8.00;1.00;;;;;;4957315;29;20582;-47
2023/01/04 02:29:04;;;;;;;5.23;1.80;;;8.00;1.00;;;;;;4956928;29;20461;-47
2023/01/04 02:31:40;;;;;;;4.70;1.70;;;8.00;1.00;;;;;;4956575;28;20488;-47
2023/01/04 02:34:23;;;;;;;5.47;1.83;;;8.00;1.00;;;;;;4956660;29;20412;-47
2023/01/04 02:36:57;;;;;;;4.77;2.30;;;8.10;1.00;;;;;;4956614;29;20462;-47
2023/01/04 02:39:47;;;;;;;7.33;2.10;;;8.10;1.00;;;;;;4957061;28;21121;-47
2023/01/04 02:45:29;;;;;;;3.10;1.43;;;8.00;1.00;;;;;;4956774;28;20432;-47
2023/01/04 02:50:57;;;;;;;4.57;2.20;;;8.00;1.00;;;;;;4956411;29;20432;-47
2023/01/04 02:53:37;;;;;;;8.33;2.00;;;8.00;1.00;;;;;;4956731;29;21095;-48
2023/01/04 02:56:18;;;;;;;6.10;1.97;;;8.00;1.00;;;;;;4956305;29;20445;-47
2023/01/04 02:59:02;;;;;;;4.60;1.80;;;8.00;1.00;;;;;;4956691;29;20421;-47
2023/01/04 03:07:52;;;;;;;9.73;2.10;;;7.80;1.00;;;;;;4956121;29;20472;-47
2023/01/04 03:10:57;;;;;;;4.40;2.00;;;7.80;1.00;;;;;;4956397;29;20726;-47
2023/01/04 03:13:39;;;;;;;11.70;2.20;;;7.80;1.00;;;;;;4896579;29;20815;-47
2023/01/04 03:16:16;;;;;;;4.13;2.10;;;7.80;1.00;;;;;;4949809;29;20808;-48
2023/01/04 03:18:46;;;;;;;4.17;1.80;;;7.80;1.00;;;;;;4955179;28;20409;-48
2023/01/04 03:21:13;;;;;;;3.10;1.47;;;7.80;1.00;;;;;;4955397;28;20852;-47
2023/01/04 03:49:56;;;;;;;3.70;1.90;;;7.60;59.50;;;;;;4955227;29;20931;-47
2023/01/04 03:52:25;;;;;;;3.43;1.63;;;7.50;53.50;;;;;;4955403;29;20410;-48
2023/01/04 03:54:53;;;;;;;2.43;1.70;;;7.50;97.20;;;;;;4955290;29;20464;-48
2023/01/04 03:57:20;;;;;;;9.97;2.60;;;7.50;99.90;;;;;;4955131;29;20420;-47
2023/01/04 03:59:53;;;;;;;3.03;2.00;;;7.40;99.90;;;;;;4954831;28;20432;-49
2023/01/04 04:02:27;;;;;;;5.30;2.10;;;7.30;99.90;;;;;;4953863;29;20425;-49
2023/01/04 04:10:21;;;;;;;4.30;2.00;;;7.20;1.00;;;;;;4946394;29;20460;-50
2023/01/04 04:12:47;;;;;;;4.03;2.30;;;7.20;1.00;;;;;;4955724;29;21081;-51
2023/01/04 04:15:14;;;;;;;9.23;2.63;;;7.10;24.00;;;;;;4955026;28;20236;-50
2023/01/04 04:17:39;;;;;;;5.70;2.40;;;7.10;99.90;;;;;;4955239;28;20421;-50
2023/01/04 04:20:05;;;;;;;8.60;2.53;;;7.10;99.90;;;;;;4954962;29;20465;-50
2023/01/04 04:22:31;;;;;;;6.33;2.53;;;7.10;99.90;;;;;;4954675;28;20243;-50
2023/01/04 04:24:56;;;;;;;2.30;2.07;;;7.00;1.00;;;;;;4954731;29;20899;-50
2023/01/04 04:27:22;;;;;;;8.50;2.40;;;7.00;1.00;;;;;;4954480;29;20190;-50
2023/01/04 04:29:47;;;;;;;5.13;2.87;;;7.00;1.00;;;;;;4954878;29;20209;-50
2023/01/04 04:32:13;;;;;;;2.60;2.23;;;7.00;91.80;;;;;;4954282;28;20193;-51
2023/01/04 04:34:39;;;;;;;2.73;2.13;;;7.00;99.90;;;;;;4954512;28;20189;-50
2023/01/04 04:37:05;;;;;;;8.73;2.73;;;7.00;1.00;;;;;;4937488;29;20181;-50
2023/01/04 04:39:31;;;;;;;6.13;2.40;;;7.00;1.00;;;;;;4954528;29;20769;-50
2023/01/04 04:41:56;;;;;;;7.37;3.00;;;7.00;99.90;;;;;;4933413;29;20190;-51
2023/01/04 04:44:22;;;;;;;6.90;2.60;;;7.00;1.00;;;;;;4935094;29;20285;-51
2023/01/04 04:46:48;;;;;;;4.07;2.30;;;7.00;1.00;;;;;;4935528;29;20198;-51
2023/01/04 04:49:15;;;;;;;3.33;2.33;;;6.90;99.90;;;;;;4935339;29;20474;-51
2023/01/04 04:51:42;;;;;;;9.50;2.60;;;7.00;1.00;;;;;;4935594;29;20429;-51
2023/01/04 04:54:10;;;;;;;4.47;2.37;;;7.00;99.90;;;;;;4935407;29;20529;-50
2023/01/04 04:56:36;;;;;;;6.10;2.47;;;7.00;32.50;;;;;;4934971;29;20425;-51
2023/01/04 04:59:03;;;;;;;4.90;2.57;;;7.00;99.90;;;;;;4935076;29;20411;-51
2023/01/04 05:01:29;;;;;;;3.37;2.47;;;6.90;34.40;;;;;;4935047;29;20426;-51
2023/01/04 05:03:55;;;;;;;3.60;2.73;;;7.00;99.90;;;;;;4935390;29;20858;-52
2023/01/04 05:06:21;;;;;;;8.03;3.00;;;7.00;99.90;;;;;;4935011;29;20984;-52
2023/01/04 05:08:46;;;;;;;5.70;3.40;;;7.00;1.00;;;;;;4935036;29;20473;-52
2023/01/04 05:11:12;;;;;;;6.03;2.53;;;7.00;1.00;;;;;;4935735;29;20171;-51
2023/01/04 05:13:38;;;;;;;7.40;2.97;;;7.00;1.00;;;;;;4934953;29;20528;-52
2023/01/04 05:16:05;;;;;;;4.23;2.40;;;7.00;99.90;;;;;;4934981;29;20434;-51
2023/01/04 05:18:31;;;;;;;4.00;2.83;;;7.00;1.00;;;;;;4934734;29;20415;-48
2023/01/04 05:20:57;;;;;;;4.97;2.73;;;7.10;1.00;;;;;;4934323;29;20413;-48
2023/01/04 05:23:23;;;;;;;3.90;2.50;;;7.10;1.00;;;;;;4934519;29;20422;-48
2023/01/04 05:25:55;;;;;;;4.33;2.63;;;7.10;86.50;;;;;;4934661;29;20210;-48
2023/01/04 05:28:21;;;;;;;2.63;2.30;;;7.20;99.90;;;;;;4934504;29;20469;-48
2023/01/04 05:30:52;;;;;;;4.43;3.10;;;7.20;99.90;;;;;;4934577;29;20402;-48
2023/01/04 05:33:26;;;;;;;3.83;2.47;;;7.20;99.90;;;;;;4933220;29;20205;-48
2023/01/04 05:35:53;;;;;;;4.00;2.30;;;7.30;99.90;;;;;;4934332;29;20500;-48
2023/01/04 05:38:19;;;;;;;6.23;2.53;;;7.30;99.90;;;;;;4934301;29;20446;-48
2023/01/04 05:40:45;;;;;;;4.00;2.30;;;7.20;99.90;;;;;;4934325;29;20410;-48
2023/01/04 05:43:12;;;;;;;7.13;2.53;;;7.30;99.90;;;;;;4933987;29;20457;-48
2023/01/04 05:45:39;;;;;;;2.73;2.20;;;7.30;1.00;;;;;;4934060;29;20509;-48
2023/01/04 05:48:05;;;;;;;4.00;2.13;;;7.30;1.00;;;;;;4934412;29;20565;-49
2023/01/04 05:50:31;;;;;;;4.07;2.33;;;7.40;1.00;;;;;;4934120;29;20418;-48
2023/01/04 05:52:56;;;;;;;3.37;2.27;;;7.40;1.00;;;;;;4934220;29;20610;-48
2023/01/04 05:55:22;;;;;;;5.60;2.37;;;7.40;1.00;;;;;;4934161;29;20186;-48
2023/01/04 05:57:47;;;;;;;3.07;2.00;;;7.40;1.00;;;;;;4933673;29;20186;-48
2023/01/04 06:00:14;;;;;;;3.43;1.97;;;7.40;1.00;;;;;;4934119;29;20652;-48
2023/01/04 06:02:41;;;;;;;3.37;1.83;;;7.40;1.00;;;;;;4942684;29;20617;-52
2023/01/04 06:05:08;;;;;;;1.80;1.70;;;7.50;1.00;;;;;;4935830;29;20452;-53
2023/01/04 06:07:34;;;;;;;5.30;2.00;;;7.50;1.00;;;;;;4953395;29;20469;-54
2023/01/04 06:09:59;;;;;;;3.53;2.20;;;7.50;1.00;;;;;;4953112;28;20413;-54
2023/01/04 06:12:25;;;;;;;7.37;2.30;;;7.50;1.00;;;;;;4953900;29;20640;-54
2023/01/04 06:14:51;;;;;;;1.60;1.50;;;7.50;1.00;;;;;;4953098;28;20182;-55
2023/01/04 06:17:16;;;;;;;4.90;2.00;;;7.50;1.00;;;;;;4944701;29;20297;-54
2023/01/04 06:19:42;;;;;;;3.30;2.10;;;7.50;1.00;;;;;;4951756;29;20193;-54
2023/01/04 06:22:08;;;;;;;4.30;1.90;;;7.60;1.00;;;;;;4952977;29;20596;-54
2023/01/04 06:24:33;;;;;;;2.53;2.03;;;7.60;1.00;;;;;;4952769;29;20268;-54
2023/01/04 06:27:00;;;;;;;3.93;2.07;;;7.70;1.00;;;;;;4952970;28;20193;-55
2023/01/04 06:29:25;;;;;;;4.07;2.07;;;7.60;1.00;;;;;;4952962;29;20178;-54
2023/01/04 06:31:51;;;;;;;2.80;2.00;;;7.70;1.00;;;;;;4935762;29;20496;-53
2023/01/04 06:34:17;;;;;;;3.63;2.30;;;7.70;1.00;;;;;;4952988;29;20167;-57
2023/01/04 06:36:42;;;;;;;6.60;3.27;;;7.80;1.00;;;;;;4952887;29;20553;-55
2023/01/04 06:39:08;;;;;;;2.47;2.07;;;7.80;1.00;;;;;;4952812;28;20828;-55
2023/01/04 06:41:34;;;;;;;3.10;2.40;;;7.80;1.00;;;;;;4953141;29;20185;-54
2023/01/04 06:44:01;;;;;;;2.73;2.10;;;7.90;1.00;;;;;;4952972;29;20433;-54
2023/01/04 06:46:26;;;;;;;2.77;2.10;;;7.90;1.00;;;;;;4935616;29;20457;-54
2023/01/04 06:48:52;;;;;;;2.23;2.07;;;8.00;1.00;;;;;;4952613;29;20464;-54
2023/01/04 06:51:19;;;;;;;2.43;2.20;;;8.00;1.00;;;;;;4952488;29;20527;-54
2023/01/04 06:53:45;;;;;;;2.90;2.27;;;8.00;1.00;;;;;;4953652;28;20410;-55
2023/01/04 06:56:11;;;;;;;2.93;2.63;;;8.10;1.00;;;;;;4956479;29;20484;-56
2023/01/04 06:58:37;;;;;;;6.13;2.73;;;8.10;1.00;;;;;;4956399;29;20445;-54
2023/01/04 07:01:03;;;;;;;2.93;2.63;;;8.10;1.00;;;;;;4956196;29;20538;-54
2023/01/04 07:03:30;;;;;;;2.33;2.13;;;8.20;1.00;;;;;;4956296;29;20174;-55
2023/01/04 07:05:55;;;;;;;3.53;2.97;;;8.20;1.00;;;;;;4938959;29;20444;-54
2023/01/04 07:08:21;;;;;;;3.23;2.50;;;8.20;1.00;;;;;;4955813;28;20469;-54
2023/01/04 07:10:46;;;;;;;4.50;2.50;;;8.30;1.00;;;;;;4956658;29;20512;-54
2023/01/04 07:13:12;;;;;;;4.67;2.77;;;8.30;1.00;;;;;;4938826;29;20211;-53
2023/01/04 07:15:38;;;;;;;3.20;2.90;;;8.30;1.00;;;;;;4955993;29;20660;-55
2023/01/04 07:18:04;;;;;;;4.23;3.27;;;8.30;1.00;;;;;;4955890;28;20644;-56
2023/01/04 07:20:30;;;;;;;3.67;3.33;;;8.30;1.00;;;;;;4955963;28;20430;-54
2023/01/04 07:22:55;;;;;;;3.70;3.40;;;8.40;1.00;;;;;;4955818;29;20261;-54
2023/01/04 07:25:21;;;;;;;3.13;2.83;;;8.40;1.00;;;;;;4938581;29;20512;-55
2023/01/04 07:27:54;;;;;;;3.70;3.30;;;8.40;1.00;;;;;;4955947;29;20312;-55
2023/01/04 07:30:21;;;;;;;3.53;3.27;;;8.50;1.00;;;;;;4955755;28;20194;-55
2023/01/04 07:32:47;;;;;;;4.33;3.53;;;8.50;1.00;;;;;;4938644;29;20432;-54
2023/01/04 07:35:12;;;;;;;5.13;3.60;;;8.50;1.00;;;;;;4955472;29;20402;-55
2023/01/04 07:37:38;;;;;;;3.43;3.10;;;8.50;1.00;;;;;;4955696;29;20437;-56
2023/01/04 07:40:05;;;;;;;3.70;3.40;;;8.50;1.00;;;;;;4955505;29;20206;-55
2023/01/04 07:42:30;;;;;;;4.80;3.50;;;8.60;1.00;;;;;;4955593;29;20190;-54
2023/01/04 07:44:56;;;;;;;4.10;3.33;;;8.60;1.00;;;;;;4955760;28;20453;-53
2023/01/04 07:47:21;;;;;;;4.20;3.80;;;8.70;1.00;;;;;;4955407;28;20198;-54
2023/01/04 07:49:48;;;;;;;4.70;4.30;;;8.70;1.00;;;;;;4955606;29;20193;-54
2023/01/04 07:52:14;;;;;;;6.67;3.70;;;8.70;1.00;;;;;;4945789;29;20197;-54
2023/01/04 07:54:41;;;;;;;7.00;4.73;;;8.80;1.00;;;;;;4938083;29;20425;-55
2023/01/04 07:57:06;;;;;;;5.60;5.10;;;8.80;1.00;;;;;;4955189;29;20402;-55
2023/01/04 07:59:32;;;;;;;4.67;4.23;;;8.90;1.00;;;;;;4956391;29;20436;-56
2023/01/04 08:01:57;;;;;;;5.33;4.73;;;8.90;1.00;;;;;;4937873;29;20595;-55
2023/01/04 08:04:23;;;;;;;7.47;5.60;;;8.80;1.00;;;;;;4955157;28;20264;-55
2023/01/04 08:06:49;;;;;;;8.37;6.50;;;8.90;1.00;;;;;;4954927;28;20300;-55
2023/01/04 08:09:16;;;;;;;7.83;5.83;;;8.90;1.00;;;;;;4955092;29;21213;-54
2023/01/04 08:11:43;;;;;;;7.53;6.00;;;9.00;1.00;;;;;;4939346;29;20256;-54
2023/01/04 08:14:09;;;;;;;6.00;5.40;;;9.00;1.00;;;;;;4955624;28;20437;-55
2023/01/04 08:16:37;;;;;;;8.17;6.27;;;9.10;1.00;;;;;;4954874;29;20441;-57
2023/01/04 08:19:06;;;;;;;7.73;5.50;;;9.10;1.00;;;;;;4954877;29;20424;-56
2023/01/04 08:21:34;;;;;;;7.00;5.70;;;9.20;1.00;;;;;;4954612;29;20563;-56
2023/01/04 08:24:00;;;;;;;8.23;6.30;;;9.20;1.00;;;;;;4954511;29;20441;-55
2023/01/04 08:26:26;;;;;;;7.77;6.30;;;9.20;1.00;;;;;;4953502;28;20448;-57
2023/01/04 08:28:52;;;;;;;7.70;5.90;;;9.20;1.00;;;;;;4954844;29;20826;-56
2023/01/04 08:31:21;;;;;;;7.20;6.30;;;9.20;1.00;;;;;;4946830;29;20441;-57
2023/01/04 08:33:47;;;;;;;8.23;6.43;;;9.30;1.00;;;;;;4941893;29;20182;-56
2023/01/04 08:36:18;;;;;;;7.43;6.53;;;9.30;3.40;;;;;;4947407;29;20449;-57
2023/01/04 08:38:45;;;;;;;8.73;6.20;;;9.30;9.80;;;;;;4937567;29;20456;-56
2023/01/04 08:41:12;;;;;;;7.07;6.37;;;9.30;12.60;;;;;;4953348;28;20950;-54
2023/01/04 08:43:38;;;;;;;9.63;6.17;;;9.40;13.40;;;;;;4953336;29;20508;-56
2023/01/04 08:46:04;;;;;;;8.77;6.03;;;9.40;16.90;;;;;;4935589;29;20476;-58
2023/01/04 08:48:31;;;;;;;8.13;5.70;;;9.40;18.50;;;;;;4952536;29;20220;-57
2023/01/04 08:50:58;;;;;;;5.93;5.30;;;9.50;19.50;;;;;;4941102;28;21920;-57
2023/01/04 08:53:24;;;;;;;6.07;5.47;;;9.50;19.90;;;;;;4950306;28;20441;-67
2023/01/04 08:55:51;;;;;;;6.33;5.53;;;9.50;20.00;;;;;;4935203;29;20437;-64
2023/01/04 08:58:17;;;;;;;5.47;4.97;;;9.60;18.20;;;;;;4950507;28;20654;-59
2023/01/04 09:00:42;;;;;;;6.37;5.10;;;9.60;18.20;;;;;;4945515;29;20485;-57
2023/01/04 09:03:08;;;;;;;5.77;5.10;;;9.60;17.90;;;;;;4954141;29;20464;-55
2023/01/04 09:05:33;;;;;;;6.40;5.20;;;9.70;21.20;;;;;;4953896;28;20220;-55
2023/01/04 09:07:59;;;;;;;5.20;4.70;;;9.70;23.00;;;;;;4953663;29;20304;-54
2023/01/04 09:10:25;;;;;;;5.00;4.23;;;9.70;21.40;;;;;;4954492;28;20181;-54
2023/01/04 09:12:51;;;;;;;5.40;4.90;;;9.80;21.50;;;;;;4954077;28;20194;-57
2023/01/04 09:15:18;;;;;;;6.93;4.70;;;9.80;21.40;;;;;;4953990;28;20462;-55
2023/01/04 09:17:43;;;;;;;9.63;4.73;;;9.80;20.10;;;;;;4953029;28;20185;-57
2023/01/04 09:20:09;;;;;;;4.30;3.90;;;9.90;20.10;;;;;;4945856;28;20503;-56
2023/01/04 09:22:35;;;;;;;4.40;4.00;;;9.90;20.00;;;;;;4944651;29;20512;-56
2023/01/04 09:25:01;;;;;;;4.27;3.97;;;9.90;20.30;;;;;;4953731;29;20627;-55
2023/01/04 09:27:26;;;;;;;4.00;3.70;;;10.00;20.90;;;;;;4953764;28;20558;-56
2023/01/04 09:29:52;;;;;;;4.83;4.33;;;10.00;22.60;;;;;;4953526;28;20578;-56
2023/01/04 09:32:17;;;;;;;5.47;4.17;;;10.00;23.70;;;;;;4953354;28;20182;-56
2023/01/04 09:34:44;;;;;;;4.20;3.87;;;10.00;26.30;;;;;;4953661;29;20613;-56
2023/01/04 09:37:09;;;;;;;4.97;4.50;;;10.00;29.20;;;;;;4953634;29;20254;-57
2023/01/04 09:39:35;;;;;;;4.10;3.73;;;10.10;34.00;;;;;;4953335;29;20556;-56
2023/01/04 09:42:09;;;;;;;3.73;3.30;;;10.10;39.40;;;;;;4937411;29;20225;-62
2023/01/04 09:44:51;;;;;;;5.50;3.57;;;10.10;42.90;;;;;;4953643;28;20202;-57
2023/01/04 09:47:33;;;;;;;3.80;3.50;;;10.10;49.50;;;;;;4953191;28;20409;-57
2023/01/04 09:50:20;;;;;;;4.50;4.10;;;10.10;54.30;;;;;;4953384;28;20417;-57
2023/01/04 09:52:48;;;;;;;5.07;4.20;;;10.20;58.90;;;;;;4953687;28;20786;-57
2023/01/04 09:55:22;;;;;;;4.60;4.20;;;10.20;64.10;;;;;;4952165;28;20446;-57
2023/01/04 09:57:52;;;;;;;4.20;3.90;;;10.20;68.50;;;;;;4953487;29;20476;-57
2023/01/04 10:00:43;;;;;;;5.17;4.30;;;10.20;74.10;;;;;;4953041;29;20445;-57
2023/01/04 10:03:21;;;;;;;4.73;4.33;;;10.20;77.70;;;;;;4953060;29;20429;-57
2023/01/04 10:05:55;;;;;;;4.17;3.77;;;10.20;83.50;;;;;;4951954;29;20456;-56
2023/01/04 10:08:20;;;;;;;5.07;4.03;;;10.30;85.60;;;;;;4952329;28;20480;-56
2023/01/04 10:11:40;;;;;;;4.23;3.80;;;10.30;85.40;;;;;;4953000;29;20445;-56
2023/01/04 10:14:33;;;;;;;4.40;3.70;;;10.30;84.70;;;;;;4855908;29;20208;-56
2023/01/04 10:17:17;;;;;;;4.23;3.83;;;10.30;82.30;;;;;;4953331;29;20756;-55
2023/01/04 10:19:49;;;;;;;4.10;3.77;;;10.30;74.10;;;;;;4935230;29;20469;-56
2023/01/04 10:22:24;;;;;;;3.53;3.23;;;10.40;65.20;;;;;;4947346;29;20477;-55
2023/01/04 10:24:50;;;;;;;3.43;3.23;;;10.40;58.20;;;;;;4951500;29;20471;-54
2023/01/04 10:27:24;;;;;;;3.47;3.20;;;10.40;53.70;;;;;;4952172;29;20444;-54
2023/01/04 10:30:02;;;;;;;2.50;2.30;;;10.40;46.20;;;;;;4954740;28;20192;-55
2023/01/04 10:33:10;;;;;;;2.93;2.73;;;10.40;36.30;;;;;;4956283;29;20802;-54
2023/01/04 10:35:36;;;;;;;3.40;3.10;;;10.40;27.80;;;;;;4955565;28;20782;-55
2023/01/04 10:38:09;;;;;;;3.40;2.73;;;10.40;24.20;;;;;;4956374;29;20448;-54
2023/01/04 10:40:38;;;;;;;2.97;2.73;;;10.40;24.80;;;;;;4954184;29;20202;-52
2023/01/04 10:43:21;;;;;;;3.33;2.57;;;10.50;24.70;;;;;;4956736;29;20444;-52
2023/01/04 10:46:13;;;;;;;2.37;2.27;;;10.50;22.20;;;;;;4956634;29;20421;-53
2023/01/04 10:48:59;;;;;;;3.17;2.47;;;10.50;21.60;;;;;;4941150;29;20469;-53
2023/01/04 10:51:35;;;;;;;2.33;2.23;;;10.50;23.90;;;;;;4953059;29;20468;-56
2023/01/04 10:54:24;;;;;;;2.53;2.43;;;10.50;23.20;;;;;;4937299;29;20449;-53
2023/01/04 10:57:03;;;;;;;5.00;2.67;;;10.60;24.10;;;;;;4947889;29;20417;-53
2023/01/04 10:59:36;;;;;;;2.37;2.27;;;10.60;24.50;;;;;;4949584;28;20448;-53
2023/01/04 11:02:25;;;;;;;2.77;2.57;;;10.60;22.80;;;;;;4939594;29;20432;-54
2023/01/04 11:04:55;;;;;;;2.70;2.50;;;10.60;21.70;;;;;;4938724;29;20510;-54
2023/01/04 11:07:57;;;;;;;2.13;2.03;;;10.60;25.80;;;;;;4941441;28;20440;-54
2023/01/04 11:10:30;;;;;;;2.47;2.27;;;10.70;28.70;;;;;;4944110;29;20452;-52
2023/01/04 11:12:56;;;;;;;2.57;2.37;;;10.70;26.90;;;;;;4942536;29;20877;-53
2023/01/04 11:15:22;;;;;;;2.27;2.17;;;10.70;21.50;;;;;;4938904;29;20477;-53
2023/01/04 11:17:49;;;;;;;3.37;2.30;;;10.70;18.50;;;;;;4939083;29;20452;-53
2023/01/04 11:20:15;;;;;;;2.47;2.27;;;10.70;16.80;;;;;;4939313;29;20204;-55
2023/01/04 11:23:08;;;;;;;2.23;2.03;;;10.70;17.60;;;;;;4940205;29;20990;-53
2023/01/04 11:25:51;;;;;;;5.03;1.83;;;10.70;22.20;;;;;;4941887;29;20197;-54
2023/01/04 11:28:24;;;;;;;2.03;1.90;;;10.80;26.30;;;;;;4937893;29;20565;-56
2023/01/04 11:30:52;;;;;;;2.33;2.13;;;10.80;30.60;;;;;;4939630;29;20441;-54
2023/01/04 11:33:20;;;;;;;2.40;2.20;;;10.80;34.50;;;;;;4938812;28;20805;-54
2023/01/04 11:35:52;;;;;;;2.40;2.20;;;10.80;36.50;;;;;;4939188;28;20456;-54
2023/01/04 11:38:23;;;;;;;2.10;2.00;;;10.80;41.60;;;;;;4948904;29;20450;-54
2023/01/04 11:40:54;;;;;;;2.53;2.33;;;10.80;46.40;;;;;;4938766;29;20453;-55
2023/01/04 11:43:21;;;;;;;1.97;1.87;;;10.90;48.30;;;;;;4947494;28;20461;-55
2023/01/04 11:45:58;;;;;;;2.27;2.07;;;10.90;53.30;;;;;;4938569;28;20449;-54
2023/01/04 11:48:42;;;;;;;2.63;2.43;;;10.90;53.50;;;;;;4945126;28;20491;-55
2023/01/04 11:51:25;;;;;;;2.33;2.00;;;10.90;57.50;;;;;;4954809;29;20445;-55
2023/01/04 11:53:58;;;;;;;2.07;1.80;;;10.80;61.60;;;;;;4954478;29;20504;-55
2023/01/04 11:56:26;;;;;;;2.50;2.30;;;10.80;71.10;;;;;;4954010;29;20496;-57
2023/01/04 11:59:17;;;;;;;2.33;2.23;;;10.90;86.30;;;;;;4953288;28;20444;-54
2023/01/04 12:01:46;;;;;;;2.33;2.13;;;10.90;92.00;;;;;;4950002;29;20545;-55
2023/01/04 12:04:21;;;;;;;2.37;2.20;;;10.90;93.70;;;;;;4954255;28;20496;-55
2023/01/04 12:06:52;;;;;;;1.90;1.80;;;10.90;92.20;;;;;;4954467;29;20455;-55
2023/01/04 12:09:19;;;;;;;2.63;2.43;;;10.90;91.90;;;;;;4954409;29;20472;-55
2023/01/04 12:11:54;;;;;;;3.53;1.93;;;10.90;92.60;;;;;;4955581;28;20436;-55
2023/01/04 12:14:36;;;;;;;2.20;1.87;;;10.90;93.40;;;;;;4953312;28;20446;-54
2023/01/04 12:17:12;;;;;;;1.97;1.80;;;10.90;94.70;;;;;;4954263;29;20437;-54
2023/01/04 12:19:40;;;;;;;1.70;1.60;;;11.00;94.80;;;;;;4954629;29;20437;-54
2023/01/04 12:22:35;;;;;;;2.23;1.70;;;11.00;96.60;;;;;;4954163;29;20481;-54
2023/01/04 12:25:05;;;;;;;2.10;2.00;;;11.00;97.70;;;;;;4954531;28;20539;-54
2023/01/04 12:27:30;;;;;;;2.07;1.97;;;11.00;99.60;;;;;;4953886;29;20483;-53
2023/01/04 12:30:04;;;;;;;1.50;1.40;;;11.00;99.30;;;;;;4953797;29;20513;-62
2023/01/04 12:32:30;;;;;;;2.20;1.77;;;11.00;95.70;;;;;;4953750;29;20197;-53
2023/01/04 12:34:55;;;;;;;2.07;1.97;;;11.00;91.10;;;;;;4953079;29;20795;-53
2023/01/04 12:37:41;;;;;;;1.83;1.73;;;11.00;90.50;;;;;;4944713;28;20189;-53
2023/01/04 12:40:44;;;;;;;2.10;2.00;;;11.00;93.40;;;;;;4954965;28;20553;-52
2023/01/04 12:43:15;;;;;;;1.70;1.57;;;11.00;93.70;;;;;;4938974;29;20484;-52
2023/01/04 12:45:47;;;;;;;2.40;2.23;;;11.10;85.90;;;;;;4954316;29;20927;-52
2023/01/04 12:51:19;;;;;;;2.57;2.37;;;11.10;60.10;;;;;;4953719;28;20577;-51
2023/01/04 12:53:56;;;;;;;3.35;2.50;;;11.10;55.80;;;;;;4950707;29;20438;-52
2023/01/04 12:56:22;;;;;;;2.80;2.60;;;11.20;58.70;;;;;;4943156;29;20269;-51
2023/01/04 12:59:09;;;;;;;3.10;2.83;;;11.10;58.80;;;;;;4953438;28;20545;-51
2023/01/04 13:01:36;;;;;;;2.77;2.57;;;11.20;59.10;;;;;;4954279;29;20429;-51
2023/01/04 13:04:38;;;;;;;3.20;3.00;;;11.20;55.30;;;;;;4945774;29;20441;-52
2023/01/04 13:07:13;;;;;;;3.63;3.10;;;11.20;46.10;;;;;;4953710;29;20433;-51
2023/01/04 13:09:44;;;;;;;3.40;3.10;;;11.20;36.60;;;;;;4954103;29;20573;-50
2023/01/04 13:12:44;;;;;;;3.67;3.20;;;11.20;28.20;;;;;;4954336;29;20421;-55
2023/01/04 13:15:45;;;;;;;4.90;3.47;;;11.20;21.60;;;;;;4928077;28;20543;-54
2023/01/04 13:18:38;;;;;;;3.10;2.90;;;11.20;22.50;;;;;;4912161;29;20449;-51
2023/01/04 13:21:32;;;;;;;3.53;3.23;;;11.30;17.70;;;;;;4952865;28;20540;-50
2023/01/04 13:24:26;;;;;;;3.00;2.80;;;11.30;4.20;;;;;;4951835;29;20919;-50
2023/01/04 13:26:52;;;;;;;2.87;2.67;;;11.30;1.00;;;;;;4939342;28;20457;-51
2023/01/04 13:29:27;;;;;;;3.00;2.80;;;11.30;1.00;;;;;;4953331;28;20473;-50
2023/01/04 13:31:56;;;;;;;3.33;3.13;;;11.30;1.00;;;;;;4954135;28;20431;-51
2023/01/04 13:34:23;;;;;;;4.10;3.70;;;11.30;1.00;;;;;;4952079;29;20433;-50
2023/01/04 13:37:16;;;;;;;3.17;2.60;;;11.30;1.00;;;;;;4953082;29;20455;-50
2023/01/04 13:40:01;;;;;;;3.00;2.70;;;11.30;1.00;;;;;;4915395;29;20464;-54
2023/01/04 13:42:32;;;;;;;3.43;3.00;;;11.40;1.00;;;;;;4953501;28;21051;-50
2023/01/04 13:45:09;;;;;;;6.10;3.10;;;11.30;1.00;;;;;;4952982;28;21170;-50
2023/01/04 13:47:36;;;;;;;2.97;2.77;;;11.30;1.00;;;;;;4954030;29;20477;-51
2023/01/04 13:50:04;;;;;;;3.50;3.00;;;11.30;1.00;;;;;;4952550;29;20463;-51
2023/01/04 13:52:29;;;;;;;3.27;2.97;;;11.30;1.00;;;;;;4953791;28;20409;-50
2023/01/04 13:55:20;;;;;;;2.60;2.40;;;11.30;1.00;;;;;;4952390;29;20578;-50
2023/01/04 13:57:56;;;;;;;4.20;3.07;;;11.30;1.00;;;;;;4952060;29;20771;-50
2023/01/04 14:00:35;;;;;;;5.13;2.70;;;11.30;1.00;;;;;;4949912;29;20512;-51
2023/01/04 14:03:09;;;;;;;3.63;3.10;;;11.40;1.00;;;;;;4949424;29;20433;-50
2023/01/04 14:05:37;;;;;;;3.87;2.50;;;11.40;1.00;;;;;;4952388;29;20535;-50